sensor_id;sensor_type;location;lat;lon;timestamp;P1;durP1;ratioP1;P2;durP2;ratioP2
74347;SDS011;62778;50.406;10.008;2022-10-16T00:00:43;2.90;;;0.70;;
74347;SDS011;62778;50.406;10.008;2022-10-16T00:01:38;3.22;;;0.80;;
74347;SDS011;62778;50.406;10.008;2022-10-16T00:02:34;3.73;;;0.70;;
74347;SDS011;62778;50.406;10.008;2022-10-16T00:03:29;4.07;;;0.97;;
74347;SDS011;62778;50.406;10.008;2022-10-16T00:04:25;3.30;;;0.93;;
74347;SDS011;62778;50.406;10.008;2022-10-16T00:05:20;3.87;;;1.00;;
74347;SDS011;62778;50.406;10.008;2022-10-16T00:06:16;3.30;;;0.90;;
74347;SDS011;62778;50.406;10.008;2022-10-16T00:07:12;4.20;;;0.80;;
74347;SDS011;62778;50.406;10.008;2022-10-16T00:08:08;3.70;;;0.93;;
74347;SDS011;62778;50.406;10.008;2022-10-16T00:09:04;3.28;;;0.93;;
74347;SDS011;62778;50.406;10.008;2022-10-16T00:10:00;3.03;;;0.70;;
74347;SDS011;62778;50.406;10.008;2022-10-16T00:11:02;3.97;;;0.80;;
74347;SDS011;62778;50.406;10.008;2022-10-16T00:12:08;4.10;;;1.00;;
74347;SDS011;62778;50.406;10.008;2022-10-16T00:13:03;3.10;;;0.90;;
74347;SDS011;62778;50.406;10.008;2022-10-16T00:14:00;3.53;;;0.90;;
74347;SDS011;62778;50.406;10.008;2022-10-16T00:14:56;3.93;;;0.97;;
74347;SDS011;62778;50.406;10.008;2022-10-16T00:15:52;3.45;;;0.80;;
74347;SDS011;62778;50.406;10.008;2022-10-16T00:16:50;3.53;;;0.70;;
74347;SDS011;62778;50.406;10.008;2022-10-16T00:17:45;4.07;;;0.80;;
74347;SDS011;62778;50.406;10.008;2022-10-16T00:18:40;3.17;;;0.80;;
74347;SDS011;62778;50.406;10.008;2022-10-16T00:19:36;3.40;;;0.80;;
74347;SDS011;62778;50.406;10.008;2022-10-16T00:20:33;3.90;;;0.80;;
74347;SDS011;62778;50.406;10.008;2022-10-16T00:21:29;3.33;;;0.70;;
74347;SDS011;62778;50.406;10.008;2022-10-16T00:22:26;3.95;;;0.60;;
74347;SDS011;62778;50.406;10.008;2022-10-16T00:23:21;3.53;;;0.60;;
74347;SDS011;62778;50.406;10.008;2022-10-16T00:24:17;3.73;;;0.70;;
74347;SDS011;62778;50.406;10.008;2022-10-16T00:25:12;3.20;;;0.70;;
74347;SDS011;62778;50.406;10.008;2022-10-16T00:26:09;3.17;;;0.60;;
74347;SDS011;62778;50.406;10.008;2022-10-16T00:27:07;3.63;;;0.68;;
74347;SDS011;62778;50.406;10.008;2022-10-16T00:28:02;3.67;;;0.73;;
74347;SDS011;62778;50.406;10.008;2022-10-16T00:28:57;3.00;;;0.70;;
74347;SDS011;62778;50.406;10.008;2022-10-16T00:29:53;4.03;;;0.63;;
74347;SDS011;62778;50.406;10.008;2022-10-16T00:30:48;3.27;;;0.80;;
74347;SDS011;62778;50.406;10.008;2022-10-16T00:31:43;3.40;;;0.80;;
74347;SDS011;62778;50.406;10.008;2022-10-16T00:32:39;3.45;;;0.75;;
74347;SDS011;62778;50.406;10.008;2022-10-16T00:33:35;4.53;;;0.90;;
74347;SDS011;62778;50.406;10.008;2022-10-16T00:34:30;4.30;;;0.90;;
74347;SDS011;62778;50.406;10.008;2022-10-16T00:35:26;3.90;;;0.77;;
74347;SDS011;62778;50.406;10.008;2022-10-16T00:36:22;3.13;;;0.73;;
74347;SDS011;62778;50.406;10.008;2022-10-16T00:37:19;3.95;;;0.90;;
74347;SDS011;62778;50.406;10.008;2022-10-16T00:38:14;3.67;;;0.82;;
74347;SDS011;62778;50.406;10.008;2022-10-16T00:39:09;4.77;;;0.80;;
74347;SDS011;62778;50.406;10.008;2022-10-16T00:40:05;3.30;;;0.70;;
74347;SDS011;62778;50.406;10.008;2022-10-16T00:41:00;3.63;;;0.90;;
74347;SDS011;62778;50.406;10.008;2022-10-16T00:41:56;3.93;;;0.70;;
74347;SDS011;62778;50.406;10.008;2022-10-16T00:42:51;4.53;;;0.70;;
74347;SDS011;62778;50.406;10.008;2022-10-16T00:44:45;3.63;;;0.90;;
74347;SDS011;62778;50.406;10.008;2022-10-16T00:45:40;3.95;;;0.70;;
74347;SDS011;62778;50.406;10.008;2022-10-16T00:47:36;3.53;;;0.90;;
74347;SDS011;62778;50.406;10.008;2022-10-16T00:48:34;5.25;;;0.80;;
74347;SDS011;62778;50.406;10.008;2022-10-16T00:49:29;2.90;;;0.80;;
74347;SDS011;62778;50.406;10.008;2022-10-16T00:50:28;3.27;;;0.63;;
74347;SDS011;62778;50.406;10.008;2022-10-16T00:51:28;3.28;;;0.90;;
74347;SDS011;62778;50.406;10.008;2022-10-16T00:52:26;3.50;;;0.90;;
74347;SDS011;62778;50.406;10.008;2022-10-16T00:53:21;3.40;;;0.80;;
74347;SDS011;62778;50.406;10.008;2022-10-16T00:54:18;3.60;;;0.77;;
74347;SDS011;62778;50.406;10.008;2022-10-16T00:55:16;3.00;;;0.75;;
74347;SDS011;62778;50.406;10.008;2022-10-16T00:56:11;3.20;;;0.70;;
74347;SDS011;62778;50.406;10.008;2022-10-16T00:57:06;3.50;;;1.00;;
74347;SDS011;62778;50.406;10.008;2022-10-16T00:58:02;4.80;;;0.98;;
74347;SDS011;62778;50.406;10.008;2022-10-16T00:58:57;4.07;;;0.80;;
74347;SDS011;62778;50.406;10.008;2022-10-16T00:59:54;3.50;;;0.82;;
74347;SDS011;62778;50.406;10.008;2022-10-16T01:00:49;4.40;;;0.90;;
74347;SDS011;62778;50.406;10.008;2022-10-16T01:01:45;3.77;;;0.90;;
74347;SDS011;62778;50.406;10.008;2022-10-16T01:02:40;3.33;;;0.88;;
74347;SDS011;62778;50.406;10.008;2022-10-16T01:03:36;3.53;;;0.80;;
74347;SDS011;62778;50.406;10.008;2022-10-16T01:04:32;4.00;;;0.70;;
74347;SDS011;62778;50.406;10.008;2022-10-16T01:05:32;3.92;;;0.90;;
74347;SDS011;62778;50.406;10.008;2022-10-16T01:06:43;3.47;;;0.90;;
74347;SDS011;62778;50.406;10.008;2022-10-16T01:08:47;3.20;;;0.70;;
74347;SDS011;62778;50.406;10.008;2022-10-16T01:11:53;3.30;;;0.90;;
74347;SDS011;62778;50.406;10.008;2022-10-16T01:13:33;3.85;;;0.90;;
74347;SDS011;62778;50.406;10.008;2022-10-16T01:14:39;3.70;;;0.70;;
74347;SDS011;62778;50.406;10.008;2022-10-16T01:15:41;3.65;;;0.60;;
74347;SDS011;62778;50.406;10.008;2022-10-16T01:16:46;4.95;;;1.00;;
74347;SDS011;62778;50.406;10.008;2022-10-16T01:18:00;3.72;;;0.90;;
74347;SDS011;62778;50.406;10.008;2022-10-16T01:19:01;4.30;;;0.80;;
74347;SDS011;62778;50.406;10.008;2022-10-16T01:21:07;3.47;;;0.70;;
74347;SDS011;62778;50.406;10.008;2022-10-16T01:22:08;3.47;;;0.80;;
74347;SDS011;62778;50.406;10.008;2022-10-16T01:24:34;4.25;;;0.90;;
74347;SDS011;62778;50.406;10.008;2022-10-16T01:25:41;3.28;;;0.70;;
74347;SDS011;62778;50.406;10.008;2022-10-16T01:26:48;3.38;;;0.75;;
74347;SDS011;62778;50.406;10.008;2022-10-16T01:27:45;3.90;;;0.70;;
74347;SDS011;62778;50.406;10.008;2022-10-16T01:29:03;3.33;;;0.80;;
74347;SDS011;62778;50.406;10.008;2022-10-16T01:30:24;3.50;;;0.70;;
74347;SDS011;62778;50.406;10.008;2022-10-16T01:31:23;3.30;;;0.80;;
74347;SDS011;62778;50.406;10.008;2022-10-16T01:33:51;3.92;;;1.00;;
74347;SDS011;62778;50.406;10.008;2022-10-16T01:35:09;5.80;;;0.80;;
74347;SDS011;62778;50.406;10.008;2022-10-16T01:36:09;3.20;;;0.82;;
74347;SDS011;62778;50.406;10.008;2022-10-16T01:37:22;3.30;;;0.90;;
74347;SDS011;62778;50.406;10.008;2022-10-16T01:38:36;4.20;;;1.17;;
74347;SDS011;62778;50.406;10.008;2022-10-16T01:39:34;3.47;;;1.10;;
74347;SDS011;62778;50.406;10.008;2022-10-16T01:40:30;3.70;;;1.20;;
74347;SDS011;62778;50.406;10.008;2022-10-16T01:41:30;3.30;;;0.80;;
74347;SDS011;62778;50.406;10.008;2022-10-16T01:42:34;3.60;;;0.80;;
74347;SDS011;62778;50.406;10.008;2022-10-16T01:43:40;3.80;;;0.80;;
74347;SDS011;62778;50.406;10.008;2022-10-16T01:44:38;3.42;;;0.90;;
74347;SDS011;62778;50.406;10.008;2022-10-16T01:45:34;3.40;;;1.08;;
74347;SDS011;62778;50.406;10.008;2022-10-16T01:46:31;3.45;;;0.80;;
74347;SDS011;62778;50.406;10.008;2022-10-16T01:47:28;3.45;;;1.00;;
74347;SDS011;62778;50.406;10.008;2022-10-16T01:48:25;4.18;;;1.20;;
74347;SDS011;62778;50.406;10.008;2022-10-16T01:49:21;4.50;;;0.77;;
74347;SDS011;62778;50.406;10.008;2022-10-16T01:50:18;4.35;;;1.27;;
74347;SDS011;62778;50.406;10.008;2022-10-16T01:51:15;3.90;;;1.00;;
74347;SDS011;62778;50.406;10.008;2022-10-16T01:52:13;4.13;;;1.05;;
74347;SDS011;62778;50.406;10.008;2022-10-16T01:53:12;3.85;;;1.00;;
74347;SDS011;62778;50.406;10.008;2022-10-16T01:54:08;3.47;;;1.03;;
74347;SDS011;62778;50.406;10.008;2022-10-16T01:55:05;3.90;;;1.00;;
74347;SDS011;62778;50.406;10.008;2022-10-16T01:56:02;4.00;;;1.20;;
74347;SDS011;62778;50.406;10.008;2022-10-16T01:56:59;3.45;;;1.05;;
74347;SDS011;62778;50.406;10.008;2022-10-16T01:57:56;3.20;;;0.90;;
74347;SDS011;62778;50.406;10.008;2022-10-16T01:58:54;4.20;;;1.00;;
74347;SDS011;62778;50.406;10.008;2022-10-16T01:59:52;3.30;;;0.82;;
74347;SDS011;62778;50.406;10.008;2022-10-16T02:00:51;4.60;;;1.10;;
74347;SDS011;62778;50.406;10.008;2022-10-16T02:01:48;3.95;;;1.20;;
74347;SDS011;62778;50.406;10.008;2022-10-16T02:02:47;4.60;;;1.30;;
74347;SDS011;62778;50.406;10.008;2022-10-16T02:03:44;3.43;;;1.20;;
74347;SDS011;62778;50.406;10.008;2022-10-16T02:06:14;3.40;;;1.10;;
74347;SDS011;62778;50.406;10.008;2022-10-16T02:07:10;4.17;;;1.10;;
74347;SDS011;62778;50.406;10.008;2022-10-16T02:08:05;3.97;;;1.15;;
74347;SDS011;62778;50.406;10.008;2022-10-16T02:09:00;5.60;;;1.20;;
74347;SDS011;62778;50.406;10.008;2022-10-16T02:09:56;3.80;;;0.90;;
74347;SDS011;62778;50.406;10.008;2022-10-16T02:10:51;3.90;;;1.30;;
74347;SDS011;62778;50.406;10.008;2022-10-16T02:11:47;4.33;;;1.03;;
74347;SDS011;62778;50.406;10.008;2022-10-16T02:14:11;4.30;;;1.05;;
74347;SDS011;62778;50.406;10.008;2022-10-16T02:15:06;4.00;;;1.30;;
74347;SDS011;62778;50.406;10.008;2022-10-16T02:16:02;4.38;;;1.10;;
74347;SDS011;62778;50.406;10.008;2022-10-16T02:16:57;4.13;;;1.13;;
74347;SDS011;62778;50.406;10.008;2022-10-16T02:17:52;3.67;;;1.10;;
74347;SDS011;62778;50.406;10.008;2022-10-16T02:18:48;3.60;;;1.10;;
74347;SDS011;62778;50.406;10.008;2022-10-16T02:19:43;3.67;;;1.00;;
74347;SDS011;62778;50.406;10.008;2022-10-16T02:20:44;4.25;;;1.27;;
74347;SDS011;62778;50.406;10.008;2022-10-16T02:21:54;5.27;;;1.40;;
74347;SDS011;62778;50.406;10.008;2022-10-16T02:22:51;3.85;;;1.10;;
74347;SDS011;62778;50.406;10.008;2022-10-16T02:26:06;4.78;;;1.27;;
74347;SDS011;62778;50.406;10.008;2022-10-16T02:28:13;3.55;;;1.17;;
74347;SDS011;62778;50.406;10.008;2022-10-16T02:29:13;3.67;;;1.40;;
74347;SDS011;62778;50.406;10.008;2022-10-16T02:30:18;3.85;;;1.30;;
74347;SDS011;62778;50.406;10.008;2022-10-16T02:31:16;3.55;;;1.20;;
74347;SDS011;62778;50.406;10.008;2022-10-16T02:32:14;4.63;;;1.00;;
74347;SDS011;62778;50.406;10.008;2022-10-16T02:33:12;4.85;;;1.30;;
74347;SDS011;62778;50.406;10.008;2022-10-16T02:34:08;4.32;;;1.25;;
74347;SDS011;62778;50.406;10.008;2022-10-16T02:35:06;4.63;;;1.10;;
74347;SDS011;62778;50.406;10.008;2022-10-16T02:36:02;3.97;;;1.20;;
74347;SDS011;62778;50.406;10.008;2022-10-16T02:36:58;3.33;;;0.80;;
74347;SDS011;62778;50.406;10.008;2022-10-16T02:37:55;4.75;;;1.30;;
74347;SDS011;62778;50.406;10.008;2022-10-16T02:38:50;3.67;;;1.05;;
74347;SDS011;62778;50.406;10.008;2022-10-16T02:39:46;3.83;;;1.10;;
74347;SDS011;62778;50.406;10.008;2022-10-16T02:40:41;3.30;;;0.80;;
74347;SDS011;62778;50.406;10.008;2022-10-16T02:41:37;3.55;;;1.15;;
74347;SDS011;62778;50.406;10.008;2022-10-16T02:42:34;3.67;;;1.08;;
74347;SDS011;62778;50.406;10.008;2022-10-16T02:43:30;3.83;;;1.10;;
74347;SDS011;62778;50.406;10.008;2022-10-16T02:44:25;3.90;;;1.00;;
74347;SDS011;62778;50.406;10.008;2022-10-16T02:45:21;4.43;;;1.40;;
74347;SDS011;62778;50.406;10.008;2022-10-16T02:46:17;4.32;;;1.20;;
74347;SDS011;62778;50.406;10.008;2022-10-16T02:47:13;4.32;;;1.20;;
74347;SDS011;62778;50.406;10.008;2022-10-16T02:48:09;3.50;;;1.30;;
74347;SDS011;62778;50.406;10.008;2022-10-16T02:49:04;3.60;;;1.10;;
74347;SDS011;62778;50.406;10.008;2022-10-16T02:49:59;3.55;;;1.20;;
74347;SDS011;62778;50.406;10.008;2022-10-16T02:50:55;3.40;;;1.10;;
74347;SDS011;62778;50.406;10.008;2022-10-16T02:51:50;3.40;;;1.07;;
74347;SDS011;62778;50.406;10.008;2022-10-16T02:52:45;3.70;;;1.30;;
74347;SDS011;62778;50.406;10.008;2022-10-16T02:53:41;3.50;;;1.02;;
74347;SDS011;62778;50.406;10.008;2022-10-16T02:54:36;3.97;;;1.17;;
74347;SDS011;62778;50.406;10.008;2022-10-16T02:55:31;3.30;;;1.00;;
74347;SDS011;62778;50.406;10.008;2022-10-16T02:56:27;6.20;;;1.00;;
74347;SDS011;62778;50.406;10.008;2022-10-16T02:57:22;3.77;;;1.00;;
74347;SDS011;62778;50.406;10.008;2022-10-16T02:58:18;3.80;;;1.00;;
74347;SDS011;62778;50.406;10.008;2022-10-16T02:59:13;4.13;;;1.20;;
74347;SDS011;62778;50.406;10.008;2022-10-16T03:00:09;7.15;;;1.23;;
74347;SDS011;62778;50.406;10.008;2022-10-16T03:01:05;4.45;;;1.20;;
74347;SDS011;62778;50.406;10.008;2022-10-16T03:02:01;3.50;;;1.10;;
74347;SDS011;62778;50.406;10.008;2022-10-16T03:02:56;3.40;;;1.00;;
74347;SDS011;62778;50.406;10.008;2022-10-16T03:03:51;3.77;;;1.03;;
74347;SDS011;62778;50.406;10.008;2022-10-16T03:04:46;3.50;;;0.90;;
74347;SDS011;62778;50.406;10.008;2022-10-16T03:05:43;4.80;;;1.20;;
74347;SDS011;62778;50.406;10.008;2022-10-16T03:06:40;5.10;;;1.13;;
74347;SDS011;62778;50.406;10.008;2022-10-16T03:07:36;3.70;;;1.17;;
74347;SDS011;62778;50.406;10.008;2022-10-16T03:08:31;3.57;;;0.90;;
74347;SDS011;62778;50.406;10.008;2022-10-16T03:09:26;3.50;;;1.00;;
74347;SDS011;62778;50.406;10.008;2022-10-16T03:10:21;3.90;;;1.17;;
74347;SDS011;62778;50.406;10.008;2022-10-16T03:11:17;3.40;;;1.10;;
74347;SDS011;62778;50.406;10.008;2022-10-16T03:12:12;3.70;;;1.30;;
74347;SDS011;62778;50.406;10.008;2022-10-16T03:13:07;3.40;;;1.10;;
74347;SDS011;62778;50.406;10.008;2022-10-16T03:14:03;4.00;;;0.90;;
74347;SDS011;62778;50.406;10.008;2022-10-16T03:14:58;4.00;;;0.90;;
74347;SDS011;62778;50.406;10.008;2022-10-16T03:15:53;3.85;;;1.13;;
74347;SDS011;62778;50.406;10.008;2022-10-16T03:16:49;3.30;;;0.80;;
74347;SDS011;62778;50.406;10.008;2022-10-16T03:17:44;3.50;;;1.00;;
74347;SDS011;62778;50.406;10.008;2022-10-16T03:18:39;3.20;;;0.80;;
74347;SDS011;62778;50.406;10.008;2022-10-16T03:19:35;3.17;;;0.80;;
74347;SDS011;62778;50.406;10.008;2022-10-16T03:20:30;4.50;;;0.90;;
74347;SDS011;62778;50.406;10.008;2022-10-16T03:21:26;3.47;;;0.90;;
74347;SDS011;62778;50.406;10.008;2022-10-16T03:22:21;3.13;;;0.77;;
74347;SDS011;62778;50.406;10.008;2022-10-16T03:23:16;4.13;;;0.90;;
74347;SDS011;62778;50.406;10.008;2022-10-16T03:24:12;3.30;;;0.87;;
74347;SDS011;62778;50.406;10.008;2022-10-16T03:25:07;3.10;;;0.80;;
74347;SDS011;62778;50.406;10.008;2022-10-16T03:26:03;3.80;;;0.80;;
74347;SDS011;62778;50.406;10.008;2022-10-16T03:26:58;3.03;;;0.70;;
74347;SDS011;62778;50.406;10.008;2022-10-16T03:27:53;4.23;;;0.97;;
74347;SDS011;62778;50.406;10.008;2022-10-16T03:28:48;3.30;;;0.80;;
74347;SDS011;62778;50.406;10.008;2022-10-16T03:29:44;3.37;;;0.80;;
74347;SDS011;62778;50.406;10.008;2022-10-16T03:30:39;3.10;;;0.85;;
74347;SDS011;62778;50.406;10.008;2022-10-16T03:31:34;3.17;;;0.80;;
74347;SDS011;62778;50.406;10.008;2022-10-16T03:32:30;3.20;;;0.80;;
74347;SDS011;62778;50.406;10.008;2022-10-16T03:33:25;3.20;;;0.80;;
74347;SDS011;62778;50.406;10.008;2022-10-16T03:34:20;3.10;;;0.73;;
74347;SDS011;62778;50.406;10.008;2022-10-16T03:35:16;3.20;;;0.80;;
74347;SDS011;62778;50.406;10.008;2022-10-16T03:36:11;3.63;;;1.00;;
74347;SDS011;62778;50.406;10.008;2022-10-16T03:37:07;3.20;;;0.70;;
74347;SDS011;62778;50.406;10.008;2022-10-16T03:38:02;3.25;;;0.80;;
74347;SDS011;62778;50.406;10.008;2022-10-16T03:38:57;3.10;;;0.80;;
74347;SDS011;62778;50.406;10.008;2022-10-16T03:39:52;2.87;;;0.60;;
74347;SDS011;62778;50.406;10.008;2022-10-16T03:40:48;3.10;;;0.77;;
74347;SDS011;62778;50.406;10.008;2022-10-16T03:41:43;3.60;;;0.70;;
74347;SDS011;62778;50.406;10.008;2022-10-16T03:42:38;3.60;;;0.90;;
74347;SDS011;62778;50.406;10.008;2022-10-16T03:43:34;2.97;;;0.70;;
74347;SDS011;62778;50.406;10.008;2022-10-16T03:44:29;2.97;;;0.73;;
74347;SDS011;62778;50.406;10.008;2022-10-16T03:45:25;3.60;;;0.87;;
74347;SDS011;62778;50.406;10.008;2022-10-16T03:46:21;3.25;;;0.80;;
74347;SDS011;62778;50.406;10.008;2022-10-16T03:47:16;3.27;;;0.77;;
74347;SDS011;62778;50.406;10.008;2022-10-16T03:48:15;4.25;;;0.70;;
74347;SDS011;62778;50.406;10.008;2022-10-16T03:49:10;3.40;;;0.80;;
74347;SDS011;62778;50.406;10.008;2022-10-16T03:50:06;3.10;;;0.73;;
74347;SDS011;62778;50.406;10.008;2022-10-16T03:51:02;3.42;;;0.70;;
74347;SDS011;62778;50.406;10.008;2022-10-16T03:51:57;3.00;;;0.70;;
74347;SDS011;62778;50.406;10.008;2022-10-16T03:52:53;3.50;;;0.80;;
74347;SDS011;62778;50.406;10.008;2022-10-16T03:53:48;3.40;;;0.80;;
74347;SDS011;62778;50.406;10.008;2022-10-16T03:54:43;4.00;;;0.80;;
74347;SDS011;62778;50.406;10.008;2022-10-16T03:55:40;5.37;;;0.90;;
74347;SDS011;62778;50.406;10.008;2022-10-16T03:56:37;4.00;;;0.90;;
74347;SDS011;62778;50.406;10.008;2022-10-16T03:57:33;3.10;;;0.60;;
74347;SDS011;62778;50.406;10.008;2022-10-16T03:58:28;3.10;;;0.80;;
74347;SDS011;62778;50.406;10.008;2022-10-16T03:59:23;3.50;;;0.90;;
74347;SDS011;62778;50.406;10.008;2022-10-16T04:00:19;3.30;;;0.90;;
74347;SDS011;62778;50.406;10.008;2022-10-16T04:01:14;3.20;;;0.80;;
74347;SDS011;62778;50.406;10.008;2022-10-16T04:02:09;3.60;;;0.80;;
74347;SDS011;62778;50.406;10.008;2022-10-16T04:03:05;3.67;;;0.80;;
74347;SDS011;62778;50.406;10.008;2022-10-16T04:04:00;3.27;;;0.80;;
74347;SDS011;62778;50.406;10.008;2022-10-16T04:04:55;2.72;;;0.60;;
74347;SDS011;62778;50.406;10.008;2022-10-16T04:05:51;3.20;;;0.50;;
74347;SDS011;62778;50.406;10.008;2022-10-16T04:06:46;3.20;;;0.60;;
74347;SDS011;62778;50.406;10.008;2022-10-16T04:07:41;4.20;;;0.70;;
74347;SDS011;62778;50.406;10.008;2022-10-16T04:08:37;3.08;;;0.57;;
74347;SDS011;62778;50.406;10.008;2022-10-16T04:09:34;3.53;;;0.60;;
74347;SDS011;62778;50.406;10.008;2022-10-16T04:10:29;3.40;;;0.50;;
74347;SDS011;62778;50.406;10.008;2022-10-16T04:11:25;3.40;;;0.70;;
74347;SDS011;62778;50.406;10.008;2022-10-16T04:12:20;3.50;;;0.68;;
74347;SDS011;62778;50.406;10.008;2022-10-16T04:13:15;3.27;;;0.87;;
74347;SDS011;62778;50.406;10.008;2022-10-16T04:14:11;3.93;;;0.90;;
74347;SDS011;62778;50.406;10.008;2022-10-16T04:15:06;2.73;;;0.60;;
74347;SDS011;62778;50.406;10.008;2022-10-16T04:16:02;3.38;;;0.70;;
74347;SDS011;62778;50.406;10.008;2022-10-16T04:16:57;2.90;;;0.67;;
74347;SDS011;62778;50.406;10.008;2022-10-16T04:17:53;3.10;;;0.70;;
74347;SDS011;62778;50.406;10.008;2022-10-16T04:18:48;3.30;;;0.70;;
74347;SDS011;62778;50.406;10.008;2022-10-16T04:19:43;3.00;;;0.63;;
74347;SDS011;62778;50.406;10.008;2022-10-16T04:20:39;2.90;;;0.63;;
74347;SDS011;62778;50.406;10.008;2022-10-16T04:21:34;3.00;;;0.65;;
74347;SDS011;62778;50.406;10.008;2022-10-16T04:22:29;3.47;;;0.80;;
74347;SDS011;62778;50.406;10.008;2022-10-16T04:23:25;4.10;;;0.80;;
74347;SDS011;62778;50.406;10.008;2022-10-16T04:24:20;3.20;;;0.80;;
74347;SDS011;62778;50.406;10.008;2022-10-16T04:25:15;2.83;;;0.63;;
74347;SDS011;62778;50.406;10.008;2022-10-16T04:26:11;3.13;;;0.60;;
74347;SDS011;62778;50.406;10.008;2022-10-16T04:27:06;3.00;;;0.60;;
74347;SDS011;62778;50.406;10.008;2022-10-16T04:28:01;2.80;;;0.57;;
74347;SDS011;62778;50.406;10.008;2022-10-16T04:28:57;3.00;;;0.60;;
74347;SDS011;62778;50.406;10.008;2022-10-16T04:29:52;3.10;;;0.70;;
74347;SDS011;62778;50.406;10.008;2022-10-16T04:30:47;4.30;;;0.70;;
74347;SDS011;62778;50.406;10.008;2022-10-16T04:31:43;2.87;;;0.60;;
74347;SDS011;62778;50.406;10.008;2022-10-16T04:32:38;2.80;;;0.60;;
74347;SDS011;62778;50.406;10.008;2022-10-16T04:33:33;3.65;;;0.70;;
74347;SDS011;62778;50.406;10.008;2022-10-16T04:34:29;4.67;;;0.60;;
74347;SDS011;62778;50.406;10.008;2022-10-16T04:35:24;2.80;;;0.60;;
74347;SDS011;62778;50.406;10.008;2022-10-16T04:36:20;3.72;;;0.60;;
74347;SDS011;62778;50.406;10.008;2022-10-16T04:37:15;3.60;;;0.70;;
74347;SDS011;62778;50.406;10.008;2022-10-16T04:38:11;2.90;;;0.60;;
74347;SDS011;62778;50.406;10.008;2022-10-16T04:39:06;3.05;;;0.68;;
74347;SDS011;62778;50.406;10.008;2022-10-16T04:40:01;2.77;;;0.50;;
74347;SDS011;62778;50.406;10.008;2022-10-16T04:40:57;3.00;;;0.65;;
74347;SDS011;62778;50.406;10.008;2022-10-16T04:41:53;3.97;;;0.90;;
74347;SDS011;62778;50.406;10.008;2022-10-16T04:42:48;3.03;;;0.70;;
74347;SDS011;62778;50.406;10.008;2022-10-16T04:43:44;3.88;;;0.50;;
74347;SDS011;62778;50.406;10.008;2022-10-16T04:44:39;3.67;;;0.80;;
74347;SDS011;62778;50.406;10.008;2022-10-16T04:45:34;3.50;;;0.70;;
74347;SDS011;62778;50.406;10.008;2022-10-16T04:46:29;3.20;;;0.70;;
74347;SDS011;62778;50.406;10.008;2022-10-16T04:47:25;3.65;;;0.60;;
74347;SDS011;62778;50.406;10.008;2022-10-16T04:48:20;3.23;;;0.60;;
74347;SDS011;62778;50.406;10.008;2022-10-16T04:49:15;2.80;;;0.60;;
74347;SDS011;62778;50.406;10.008;2022-10-16T04:50:11;3.57;;;0.70;;
74347;SDS011;62778;50.406;10.008;2022-10-16T04:51:06;3.00;;;0.60;;
74347;SDS011;62778;50.406;10.008;2022-10-16T04:52:01;3.35;;;0.70;;
74347;SDS011;62778;50.406;10.008;2022-10-16T04:52:57;3.40;;;0.70;;
74347;SDS011;62778;50.406;10.008;2022-10-16T04:53:52;3.67;;;0.70;;
74347;SDS011;62778;50.406;10.008;2022-10-16T04:54:47;4.53;;;0.87;;
74347;SDS011;62778;50.406;10.008;2022-10-16T04:55:45;3.00;;;0.70;;
74347;SDS011;62778;50.406;10.008;2022-10-16T04:56:40;3.20;;;0.80;;
74347;SDS011;62778;50.406;10.008;2022-10-16T04:57:41;3.00;;;0.70;;
74347;SDS011;62778;50.406;10.008;2022-10-16T04:58:37;3.07;;;0.70;;
74347;SDS011;62778;50.406;10.008;2022-10-16T04:59:32;2.47;;;0.40;;
74347;SDS011;62778;50.406;10.008;2022-10-16T05:00:27;2.80;;;0.60;;
74347;SDS011;62778;50.406;10.008;2022-10-16T05:01:23;2.70;;;0.60;;
74347;SDS011;62778;50.406;10.008;2022-10-16T05:02:18;2.63;;;0.50;;
74347;SDS011;62778;50.406;10.008;2022-10-16T05:03:13;2.70;;;0.50;;
74347;SDS011;62778;50.406;10.008;2022-10-16T05:04:09;2.63;;;0.53;;
74347;SDS011;62778;50.406;10.008;2022-10-16T05:05:05;3.20;;;0.60;;
74347;SDS011;62778;50.406;10.008;2022-10-16T05:06:00;3.13;;;0.60;;
74347;SDS011;62778;50.406;10.008;2022-10-16T05:06:56;3.73;;;0.60;;
74347;SDS011;62778;50.406;10.008;2022-10-16T05:07:51;2.80;;;0.60;;
74347;SDS011;62778;50.406;10.008;2022-10-16T05:08:46;3.77;;;0.70;;
74347;SDS011;62778;50.406;10.008;2022-10-16T05:09:42;3.00;;;0.70;;
74347;SDS011;62778;50.406;10.008;2022-10-16T05:10:37;3.40;;;0.90;;
74347;SDS011;62778;50.406;10.008;2022-10-16T05:11:32;4.30;;;0.90;;
74347;SDS011;62778;50.406;10.008;2022-10-16T05:12:28;4.70;;;0.70;;
74347;SDS011;62778;50.406;10.008;2022-10-16T05:13:23;3.10;;;0.70;;
74347;SDS011;62778;50.406;10.008;2022-10-16T05:14:18;3.50;;;0.87;;
74347;SDS011;62778;50.406;10.008;2022-10-16T05:15:14;3.30;;;0.77;;
74347;SDS011;62778;50.406;10.008;2022-10-16T05:16:09;3.20;;;0.80;;
74347;SDS011;62778;50.406;10.008;2022-10-16T05:17:05;3.60;;;0.80;;
74347;SDS011;62778;50.406;10.008;2022-10-16T05:18:01;2.90;;;0.70;;
74347;SDS011;62778;50.406;10.008;2022-10-16T05:18:56;3.83;;;0.70;;
74347;SDS011;62778;50.406;10.008;2022-10-16T05:19:51;3.50;;;0.70;;
74347;SDS011;62778;50.406;10.008;2022-10-16T05:20:47;3.90;;;0.70;;
74347;SDS011;62778;50.406;10.008;2022-10-16T05:21:44;3.97;;;0.70;;
74347;SDS011;62778;50.406;10.008;2022-10-16T05:22:40;3.97;;;0.70;;
74347;SDS011;62778;50.406;10.008;2022-10-16T05:23:35;3.10;;;0.70;;
74347;SDS011;62778;50.406;10.008;2022-10-16T05:24:30;3.10;;;0.77;;
74347;SDS011;62778;50.406;10.008;2022-10-16T05:25:26;3.05;;;0.60;;
74347;SDS011;62778;50.406;10.008;2022-10-16T05:26:21;3.10;;;0.70;;
74347;SDS011;62778;50.406;10.008;2022-10-16T05:27:17;3.77;;;0.60;;
74347;SDS011;62778;50.406;10.008;2022-10-16T05:28:15;4.63;;;0.77;;
74347;SDS011;62778;50.406;10.008;2022-10-16T05:29:10;3.97;;;1.03;;
74347;SDS011;62778;50.406;10.008;2022-10-16T05:30:06;3.80;;;0.80;;
74347;SDS011;62778;50.406;10.008;2022-10-16T05:31:05;3.42;;;0.70;;
74347;SDS011;62778;50.406;10.008;2022-10-16T05:32:02;3.85;;;0.70;;
74347;SDS011;62778;50.406;10.008;2022-10-16T05:32:57;3.30;;;0.80;;
74347;SDS011;62778;50.406;10.008;2022-10-16T05:33:57;2.83;;;0.60;;
74347;SDS011;62778;50.406;10.008;2022-10-16T05:34:55;3.20;;;0.73;;
74347;SDS011;62778;50.406;10.008;2022-10-16T05:35:51;3.57;;;0.80;;
74347;SDS011;62778;50.406;10.008;2022-10-16T05:36:46;2.83;;;0.70;;
74347;SDS011;62778;50.406;10.008;2022-10-16T05:37:42;2.83;;;0.60;;
74347;SDS011;62778;50.406;10.008;2022-10-16T05:38:37;4.43;;;0.70;;
74347;SDS011;62778;50.406;10.008;2022-10-16T05:39:32;3.10;;;0.55;;
74347;SDS011;62778;50.406;10.008;2022-10-16T05:40:28;3.03;;;0.60;;
74347;SDS011;62778;50.406;10.008;2022-10-16T05:41:23;4.13;;;0.53;;
74347;SDS011;62778;50.406;10.008;2022-10-16T05:42:21;4.53;;;0.70;;
74347;SDS011;62778;50.406;10.008;2022-10-16T05:43:16;3.13;;;0.60;;
74347;SDS011;62778;50.406;10.008;2022-10-16T05:44:12;3.63;;;0.70;;
74347;SDS011;62778;50.406;10.008;2022-10-16T05:45:10;3.80;;;0.67;;
74347;SDS011;62778;50.406;10.008;2022-10-16T05:46:06;4.13;;;0.60;;
74347;SDS011;62778;50.406;10.008;2022-10-16T05:47:02;3.80;;;0.67;;
74347;SDS011;62778;50.406;10.008;2022-10-16T05:47:57;4.60;;;0.90;;
74347;SDS011;62778;50.406;10.008;2022-10-16T05:48:53;6.65;;;0.70;;
74347;SDS011;62778;50.406;10.008;2022-10-16T05:49:48;3.97;;;0.80;;
74347;SDS011;62778;50.406;10.008;2022-10-16T05:50:43;3.83;;;0.70;;
74347;SDS011;62778;50.406;10.008;2022-10-16T05:51:39;3.77;;;1.00;;
74347;SDS011;62778;50.406;10.008;2022-10-16T05:52:37;3.92;;;0.70;;